Terminal Aerodrome Forecast
Issued by NWS Binghamton, NY

Current Version | Previous Version | Text Only | Print | Product List | Glossary On
Versions: 1 2 3 4 5 6 7 8 9 10 11 12 13 14 15
000
FTUS41 KBGM 300912 AAA
TAFSYR
TAF AMD
KSYR 300912Z 3009/3106 00000KT P6SM FEW250
      TEMPO 3010/3012 4SM BR FEW008
     FM301200 VRB03KT P6SM FEW150=

USA.gov is the U.S. government's official web portal to all federal, state and local government web resources and services.